Etusivu
METAR-TAF:

METAR-TAF

Lentoasemat :

Newton Municipal Airport

Newton, Iowa, Yhdysvallat

Leveyspiiri: 41-41N, Pituuspiiri: 093-01W, korkeus merenpinnasta: 290 m

Tämänhetkinen sää

Tämä raportti tehtiin 20 minuuttia sitten, kello 14.35 UTC
Tuuli 12 kn lännestä/luoteesta
Lämpötila 12°C
Kosteus 76%
Ilmanpaine 1015 hPa
Näkyvyys: 16.1 km
selkeää

METAR: KTNU 291435Z AUTO 29012KT 10SM CLR 12/08 A2996 RMK A01

Aika: 09:55 (14:55 UTC)


TAF: puuttuu

Säähavainnot ja -ennusteet yli 4000 lentoasemalta (METAR- ja TAF-raportit).

Käytössä olevat sääasemat on merkitty karttaan keltaisilla ja punaisilla pisteillä.

Aseta hiiri pisteen päälle nähdäksesi sääaseman nimen.

Klikkaa sitten nähdäksesi säähavainnot ja -ennusteet.

Kartan vaihtaminen: klikkaa mustalla rastilla varustettuja vihreitä pisteitä, niin voit zoomata sisään; viivalla varustettua vihreää pistettä, niin voit zoomata ulos tai vihreitä nuolia, niin pääset viereisille kartoille.


METAR-TAF: